Time;durP1;ratioP1;P1;durP2;ratioP2;P2;SDS_P1;SDS_P2;PMS_P1;PMS_P2;Temp;Humidity;BMP_temperature;BMP_pressure;BME280_temperature;BME280_humidity;BME280_pressure;Samples;Min_cycle;Max_cycle;Signal;HPM_P1;HPM_P2
2021/12/05 00:22:30;;;;;;;16.83;11.60;;;2.70;99.90;;;;;;5059579;28;20646;-49
2021/12/05 00:24:58;;;;;;;16.10;11.85;;;2.70;99.90;;;;;;5068415;28;20176;-49
2021/12/05 00:27:31;;;;;;;16.00;12.43;;;2.70;99.90;;;;;;5072614;28;20242;-50
2021/12/05 00:32:53;;;;;;;18.38;13.95;;;2.70;99.90;;;;;;5069989;28;20217;-52
2021/12/05 00:35:58;;;;;;;16.38;11.88;;;2.80;99.90;;;;;;5071232;28;20176;-50
2021/12/05 00:41:21;;;;;;;15.45;12.48;;;2.80;99.90;;;;;;5084006;28;20187;-52
2021/12/05 01:00:08;;;;;;;16.30;13.20;;;3.00;99.90;;;;;;5057521;28;20603;-50
2021/12/05 01:15:30;;;;;;;16.52;13.18;;;2.80;99.90;;;;;;5070190;28;20519;-47
2021/12/05 01:18:02;;;;;;;16.70;12.40;;;2.90;99.90;;;;;;5069294;28;20197;-49
2021/12/05 01:20:38;;;;;;;17.17;13.52;;;3.00;99.90;;;;;;5074695;28;20466;-50
2021/12/05 01:23:17;;;;;;;16.67;13.68;;;3.00;99.90;;;;;;5075015;28;20256;-52
2021/12/05 01:25:49;;;;;;;15.20;11.80;;;2.90;99.90;;;;;;5071873;28;20200;-50
2021/12/05 01:28:38;;;;;;;15.27;12.73;;;2.90;99.90;;;;;;5069006;28;20634;-49
2021/12/05 01:31:17;;;;;;;17.85;13.75;;;2.90;99.90;;;;;;5071117;28;20192;-48
2021/12/05 01:34:17;;;;;;;17.23;13.00;;;2.90;99.90;;;;;;5069832;28;20528;-49
2021/12/05 01:42:23;;;;;;;16.92;13.35;;;2.90;99.90;;;;;;5071196;28;20639;-48
2021/12/05 01:52:38;;;;;;;18.87;14.43;;;3.10;99.90;;;;;;5070912;28;20213;-47
2021/12/05 01:58:12;;;;;;;18.73;13.65;;;3.20;99.90;;;;;;5070661;28;20627;-50
2021/12/05 02:11:53;;;;;;;19.70;14.90;;;3.20;99.90;;;;;;5070525;28;20231;-53
2021/12/05 02:41:40;;;;;;;14.20;10.50;;;3.90;99.90;;;;;;5067164;28;20234;-52
2021/12/05 02:47:14;;;;;;;11.68;8.98;;;4.20;99.90;;;;;;5052266;28;20212;-47
2021/12/05 02:49:43;;;;;;;11.05;9.18;;;4.30;99.90;;;;;;5069482;28;20188;-51
2021/12/05 02:52:16;;;;;;;12.20;9.52;;;4.40;99.90;;;;;;5069257;28;20186;-49
2021/12/05 02:54:49;;;;;;;12.23;8.90;;;4.40;99.90;;;;;;5068026;28;20188;-49
2021/12/05 02:57:15;;;;;;;12.13;9.00;;;4.50;99.90;;;;;;5069202;28;20222;-47
2021/12/05 02:59:47;;;;;;;11.55;9.35;;;4.60;99.90;;;;;;5067097;28;20206;-48
2021/12/05 03:02:16;;;;;;;11.13;9.23;;;4.70;99.90;;;;;;5067018;28;20212;-51
2021/12/05 03:04:48;;;;;;;11.23;8.80;;;4.80;99.90;;;;;;5069036;28;20281;-48
2021/12/05 03:07:19;;;;;;;11.05;8.93;;;4.70;99.90;;;;;;5050462;28;20277;-48
2021/12/05 03:09:45;;;;;;;9.05;7.72;;;4.80;99.90;;;;;;5068007;28;20178;-48
2021/12/05 03:12:17;;;;;;;9.40;8.00;;;4.90;99.90;;;;;;5069315;28;20188;-48
2021/12/05 03:14:45;;;;;;;10.10;8.25;;;4.90;99.90;;;;;;5069147;28;20217;-49
2021/12/05 03:17:11;;;;;;;10.07;8.70;;;5.00;99.90;;;;;;5069135;28;20212;-52
2021/12/05 03:19:36;;;;;;;8.97;7.40;;;5.00;99.90;;;;;;5065966;28;20209;-48
2021/12/05 03:22:02;;;;;;;8.17;7.30;;;5.00;99.90;;;;;;5069354;28;20170;-47
2021/12/05 03:24:30;;;;;;;9.15;7.15;;;5.00;99.90;;;;;;5076531;28;20239;-50
2021/12/05 03:26:56;;;;;;;9.85;8.43;;;5.10;99.90;;;;;;5055818;28;20522;-50
2021/12/05 03:29:23;;;;;;;9.45;8.13;;;5.20;99.90;;;;;;5070912;28;20238;-50
2021/12/05 03:31:51;;;;;;;8.60;6.90;;;5.20;99.90;;;;;;5073854;28;20178;-51
2021/12/05 03:34:19;;;;;;;9.52;8.02;;;5.20;99.90;;;;;;5071258;28;20251;-47
2021/12/05 03:36:51;;;;;;;9.77;6.50;;;5.20;99.90;;;;;;5070396;28;20193;-49
2021/12/05 03:39:17;;;;;;;10.68;7.40;;;5.30;99.90;;;;;;5052272;28;20805;-49
2021/12/05 03:41:44;;;;;;;9.48;7.55;;;5.30;99.90;;;;;;5079351;28;20235;-49
2021/12/05 03:44:12;;;;;;;8.27;7.03;;;5.40;99.90;;;;;;5072289;28;20312;-47
2021/12/05 03:46:39;;;;;;;9.15;7.20;;;5.40;99.90;;;;;;5082595;28;20223;-49
2021/12/05 03:49:09;;;;;;;8.48;6.88;;;5.50;99.90;;;;;;5071298;28;20181;-50
2021/12/05 03:51:38;;;;;;;8.27;6.40;;;5.50;99.90;;;;;;5054891;28;20178;-53
2021/12/05 03:54:06;;;;;;;7.53;6.63;;;5.50;99.90;;;;;;5068273;28;20255;-49
2021/12/05 03:56:33;;;;;;;7.63;5.82;;;5.60;99.90;;;;;;5067735;28;20182;-52
2021/12/05 03:58:59;;;;;;;7.03;5.75;;;5.60;99.90;;;;;;5067544;28;20188;-52
2021/12/05 04:01:26;;;;;;;6.43;5.73;;;5.60;99.90;;;;;;5065193;28;20278;-51
2021/12/05 04:03:53;;;;;;;6.70;5.55;;;5.60;99.90;;;;;;5067665;28;20471;-48
2021/12/05 04:06:21;;;;;;;6.68;5.22;;;5.60;99.90;;;;;;5068349;28;20182;-48
2021/12/05 04:08:47;;;;;;;8.02;6.10;;;5.70;99.90;;;;;;5069429;28;21010;-50
2021/12/05 04:11:23;;;;;;;7.35;5.00;;;5.60;99.90;;;;;;5072145;28;20515;-48
2021/12/05 04:13:48;;;;;;;5.95;5.35;;;5.60;99.90;;;;;;5072311;28;20656;-50
2021/12/05 04:16:15;;;;;;;7.53;5.77;;;5.60;99.90;;;;;;5071448;28;20310;-47
2021/12/05 04:18:40;;;;;;;5.45;4.78;;;5.60;99.90;;;;;;5071692;28;20186;-53
2021/12/05 04:21:06;;;;;;;5.73;5.13;;;5.70;99.90;;;;;;5065939;28;20553;-49
2021/12/05 04:23:33;;;;;;;6.63;5.17;;;5.70;99.90;;;;;;5070299;28;20316;-47
2021/12/05 04:25:59;;;;;;;5.65;4.80;;;5.60;99.90;;;;;;5084556;28;20478;-52
2021/12/05 04:28:25;;;;;;;5.20;4.40;;;5.60;99.90;;;;;;5081150;28;20273;-51
2021/12/05 04:30:50;;;;;;;6.73;4.63;;;5.70;99.90;;;;;;5056121;28;20467;-51
2021/12/05 04:33:16;;;;;;;5.13;4.30;;;5.70;99.90;;;;;;5080289;28;20197;-47
2021/12/05 04:35:42;;;;;;;6.03;4.63;;;5.70;99.90;;;;;;5074991;28;20216;-51
2021/12/05 04:38:08;;;;;;;6.22;5.20;;;5.80;99.90;;;;;;5076919;28;20221;-48
2021/12/05 04:40:34;;;;;;;5.73;4.30;;;5.70;99.90;;;;;;5058190;28;20185;-47
2021/12/05 04:43:01;;;;;;;4.47;4.03;;;5.70;99.90;;;;;;5069461;28;20342;-51
2021/12/05 04:45:29;;;;;;;4.70;3.63;;;5.80;99.90;;;;;;5072805;28;20162;-51
2021/12/05 04:47:55;;;;;;;4.10;3.70;;;5.70;99.90;;;;;;5070654;28;20293;-49
2021/12/05 04:50:22;;;;;;;5.07;3.70;;;5.70;99.90;;;;;;5071267;28;20182;-47
2021/12/05 04:52:49;;;;;;;4.13;3.60;;;5.80;99.90;;;;;;5070653;28;20182;-49
2021/12/05 04:55:15;;;;;;;5.03;3.83;;;5.80;99.90;;;;;;5071920;28;20511;-48
2021/12/05 04:57:42;;;;;;;4.63;3.95;;;5.80;99.90;;;;;;5070446;28;20189;-53
2021/12/05 05:00:19;;;;;;;4.63;3.83;;;5.80;99.90;;;;;;5070625;28;20193;-52
2021/12/05 05:02:46;;;;;;;4.38;3.78;;;5.70;99.90;;;;;;5071103;28;20209;-50
2021/12/05 05:05:12;;;;;;;9.02;3.95;;;5.70;99.90;;;;;;5070520;28;20216;-51
2021/12/05 05:07:40;;;;;;;4.90;4.18;;;5.80;99.90;;;;;;5071127;28;20193;-52
2021/12/05 05:10:17;;;;;;;4.45;3.55;;;5.70;99.90;;;;;;5069196;28;20170;-50
2021/12/05 05:12:43;;;;;;;6.45;4.00;;;5.70;99.90;;;;;;5071110;28;20181;-49
2021/12/05 05:15:10;;;;;;;4.13;3.70;;;5.70;99.90;;;;;;5051634;28;20239;-50
2021/12/05 05:17:37;;;;;;;5.53;4.13;;;5.70;99.90;;;;;;5070764;28;20174;-49
2021/12/05 05:20:12;;;;;;;4.85;3.60;;;5.80;99.90;;;;;;5063928;28;20267;-49
2021/12/05 05:30:45;;;;;;;5.10;4.10;;;5.80;99.90;;;;;;5064226;28;20185;-52
2021/12/05 05:39:16;;;;;;;5.32;4.40;;;5.70;99.90;;;;;;5068463;28;20182;-49
2021/12/05 05:46:53;;;;;;;8.05;4.10;;;5.80;99.90;;;;;;5070051;28;20259;-49
2021/12/05 05:49:23;;;;;;;5.60;5.10;;;5.80;99.90;;;;;;5067076;28;20177;-48
2021/12/05 05:51:49;;;;;;;5.32;4.22;;;5.70;99.90;;;;;;5069804;28;20184;-48
2021/12/05 05:54:16;;;;;;;11.40;4.47;;;5.80;99.90;;;;;;5069333;28;20188;-48
2021/12/05 05:56:44;;;;;;;5.53;3.80;;;5.80;99.90;;;;;;5070609;28;20174;-51
2021/12/05 05:59:22;;;;;;;6.35;4.55;;;5.80;99.90;;;;;;5069608;28;20239;-52
2021/12/05 06:04:17;;;;;;;4.80;3.70;;;5.90;99.90;;;;;;5061976;28;20649;-50
2021/12/05 06:06:43;;;;;;;4.47;4.00;;;5.90;99.90;;;;;;5062682;28;20174;-53
2021/12/05 06:09:09;;;;;;;4.70;3.95;;;5.80;99.90;;;;;;5070703;28;20176;-51
2021/12/05 06:11:35;;;;;;;4.33;3.80;;;5.80;99.90;;;;;;5068642;28;20612;-47
2021/12/05 06:14:02;;;;;;;5.60;4.30;;;5.80;99.90;;;;;;5069441;28;20186;-49
2021/12/05 06:16:28;;;;;;;4.75;4.00;;;5.80;99.90;;;;;;5068597;28;20186;-53
2021/12/05 06:18:53;;;;;;;5.60;3.87;;;5.80;99.90;;;;;;5069323;28;20182;-48
2021/12/05 06:21:19;;;;;;;5.10;4.57;;;5.80;99.90;;;;;;5060335;28;20556;-53
2021/12/05 06:23:45;;;;;;;9.07;4.53;;;5.80;99.90;;;;;;5073253;28;20237;-48
2021/12/05 06:26:14;;;;;;;4.15;3.70;;;5.80;99.90;;;;;;5080054;28;20178;-50
2021/12/05 06:28:42;;;;;;;6.15;4.10;;;5.80;99.90;;;;;;5069305;28;20169;-48
2021/12/05 06:46:38;;;;;;;4.20;3.80;;;5.80;99.90;;;;;;5074345;28;20684;-52
2021/12/05 06:49:04;;;;;;;6.87;4.37;;;5.80;99.90;;;;;;5075129;28;20193;-53
2021/12/05 06:51:30;;;;;;;7.10;4.10;;;5.70;99.90;;;;;;5068984;28;20795;-51
2021/12/05 06:53:56;;;;;;;4.20;3.80;;;5.70;99.90;;;;;;5071056;28;20264;-53
2021/12/05 06:56:22;;;;;;;5.88;4.25;;;5.70;99.90;;;;;;5067840;28;20186;-55
2021/12/05 06:58:48;;;;;;;4.47;4.07;;;5.70;99.90;;;;;;5056761;28;20186;-51
2021/12/05 07:01:15;;;;;;;4.60;3.70;;;5.70;99.90;;;;;;5076270;28;20222;-48
2021/12/05 07:03:44;;;;;;;8.57;4.55;;;5.80;99.90;;;;;;5073228;28;20216;-51
2021/12/05 07:06:12;;;;;;;4.80;4.10;;;5.80;99.90;;;;;;5048853;28;20192;-51
2021/12/05 07:08:41;;;;;;;5.30;4.20;;;5.80;99.90;;;;;;5068048;28;20188;-50
2021/12/05 07:11:50;;;;;;;6.35;4.18;;;5.80;99.90;;;;;;5071299;28;20516;-51
2021/12/05 07:14:16;;;;;;;4.28;3.88;;;5.70;99.90;;;;;;5064555;28;20236;-50
2021/12/05 07:21:58;;;;;;;5.72;4.05;;;5.70;99.90;;;;;;5063343;28;20670;-48
2021/12/05 07:40:16;;;;;;;6.45;4.38;;;5.70;99.90;;;;;;5070430;28;20200;-54
2021/12/05 07:40:44;;;;;;;7.05;4.10;;;5.70;99.90;;;;;;5063550;28;20188;-51
2021/12/05 07:43:12;;;;;;;4.60;3.70;;;5.80;99.90;;;;;;5070234;28;20193;-53
2021/12/05 07:45:44;;;;;;;4.50;3.95;;;5.80;99.90;;;;;;5063019;28;20182;-52
2021/12/05 07:48:22;;;;;;;4.20;3.67;;;5.80;99.90;;;;;;5063696;28;21051;-49
2021/12/05 07:54:02;;;;;;;4.32;3.65;;;5.90;99.90;;;;;;5063562;28;20174;-50
2021/12/05 07:56:38;;;;;;;3.97;3.58;;;5.90;99.90;;;;;;5065288;28;20278;-49
2021/12/05 07:59:20;;;;;;;6.55;3.85;;;6.00;99.90;;;;;;5073750;28;20520;-54
2021/12/05 08:15:40;;;;;;;4.10;3.70;;;6.20;99.90;;;;;;5063284;28;20185;-52
2021/12/05 08:18:06;;;;;;;4.00;3.50;;;6.10;99.90;;;;;;5070546;28;20752;-50
2021/12/05 08:20:35;;;;;;;4.87;3.60;;;6.10;99.90;;;;;;5075976;28;20181;-50
2021/12/05 08:23:02;;;;;;;11.30;10.00;;;6.10;99.90;;;;;;5043649;28;20480;-51
2021/12/05 08:25:33;;;;;;;6.40;4.38;;;6.10;99.90;;;;;;5058454;28;20189;-48
2021/12/05 08:28:17;;;;;;;4.30;3.90;;;6.20;99.90;;;;;;5076473;28;21511;-50
2021/12/05 08:30:47;;;;;;;7.93;7.13;;;6.30;99.90;;;;;;5059231;28;20231;-51
2021/12/05 08:33:29;;;;;;;6.00;5.45;;;6.30;99.90;;;;;;5062080;28;20199;-53
2021/12/05 08:39:27;;;;;;;6.18;4.35;;;6.40;99.90;;;;;;4989316;28;20211;-51
2021/12/05 09:31:24;;;;;;;5.87;3.50;;;7.00;99.90;;;;;;5071168;28;20808;-55
2021/12/05 10:12:16;;;;;;;3.77;3.43;;;7.10;99.90;;;;;;5071834;28;20480;-53
2021/12/05 10:14:59;;;;;;;4.40;4.00;;;7.10;99.90;;;;;;5064930;28;20458;-49
2021/12/05 10:26:22;;;;;;;4.03;3.67;;;7.00;99.90;;;;;;5073488;28;20232;-52
2021/12/05 10:37:17;;;;;;;4.43;3.80;;;7.20;99.90;;;;;;4998666;28;20441;-55
2021/12/05 10:39:43;;;;;;;4.67;3.83;;;7.20;99.90;;;;;;5023325;28;20451;-51
2021/12/05 10:45:29;;;;;;;4.23;3.50;;;7.20;99.90;;;;;;5066482;28;20445;-53
2021/12/05 10:47:56;;;;;;;4.37;3.77;;;7.30;99.90;;;;;;5072399;28;20415;-51
2021/12/05 10:50:39;;;;;;;4.10;3.80;;;7.40;99.90;;;;;;5068628;28;20428;-53
2021/12/05 10:53:17;;;;;;;4.30;3.90;;;7.40;99.90;;;;;;5071575;28;20438;-52
2021/12/05 10:55:42;;;;;;;3.93;3.63;;;7.40;99.90;;;;;;5069437;28;20431;-48
2021/12/05 10:58:08;;;;;;;4.40;4.00;;;7.40;99.90;;;;;;5080380;28;20978;-52
2021/12/05 11:00:34;;;;;;;4.10;3.63;;;7.50;99.90;;;;;;5063453;28;20205;-56
2021/12/05 11:03:17;;;;;;;4.50;4.10;;;7.50;99.90;;;;;;5068340;28;20213;-54
2021/12/05 11:05:43;;;;;;;4.13;3.80;;;7.40;99.90;;;;;;5069837;28;20578;-54
2021/12/05 11:08:38;;;;;;;6.23;4.00;;;7.40;99.90;;;;;;5068290;28;20436;-57
2021/12/05 11:11:15;;;;;;;4.80;3.83;;;7.40;99.90;;;;;;5064374;28;20470;-57
2021/12/05 11:13:43;;;;;;;5.10;3.80;;;7.40;99.90;;;;;;5069770;28;20447;-57
2021/12/05 11:16:35;;;;;;;4.80;4.30;;;7.40;99.90;;;;;;5068800;28;20789;-55
2021/12/05 11:19:07;;;;;;;5.23;4.40;;;7.30;99.90;;;;;;5063367;28;21474;-57
2021/12/05 11:21:35;;;;;;;4.00;3.70;;;7.30;99.90;;;;;;5074228;28;20462;-59
2021/12/05 11:24:24;;;;;;;3.87;3.57;;;7.30;99.90;;;;;;5077952;28;20483;-58
2021/12/05 11:27:04;;;;;;;5.03;3.77;;;7.20;99.90;;;;;;5064837;28;20928;-57
2021/12/05 11:29:39;;;;;;;4.70;3.50;;;7.10;99.90;;;;;;5068183;28;20447;-56
2021/12/05 11:32:08;;;;;;;4.27;3.60;;;7.10;99.90;;;;;;5063810;28;20492;-51
2021/12/05 11:34:33;;;;;;;4.30;3.90;;;7.20;99.90;;;;;;5067939;28;20427;-57
2021/12/05 11:36:59;;;;;;;5.30;3.53;;;7.10;99.90;;;;;;5066086;28;20440;-63
2021/12/05 11:39:25;;;;;;;7.33;3.90;;;7.10;99.90;;;;;;5080450;28;20217;-59
2021/12/05 11:41:51;;;;;;;4.60;3.63;;;7.10;99.90;;;;;;5065216;28;20200;-59
2021/12/05 11:44:22;;;;;;;4.27;3.53;;;7.10;99.90;;;;;;5068263;28;20243;-57
2021/12/05 11:46:48;;;;;;;4.20;3.80;;;7.20;99.90;;;;;;5067517;28;20443;-58
2021/12/05 11:49:21;;;;;;;4.40;4.00;;;7.20;99.90;;;;;;5069464;28;20427;-55
2021/12/05 11:51:53;;;;;;;4.67;3.50;;;7.30;99.90;;;;;;5074323;28;20419;-56
2021/12/05 11:54:23;;;;;;;4.10;3.47;;;7.40;99.90;;;;;;5065810;28;20438;-52
2021/12/05 11:56:55;;;;;;;5.20;3.50;;;7.50;99.90;;;;;;5067583;28;20420;-60
2021/12/05 11:59:20;;;;;;;4.13;3.73;;;7.50;99.90;;;;;;5065787;28;20485;-54
2021/12/05 12:01:52;;;;;;;4.20;3.80;;;7.50;99.90;;;;;;5066456;28;20558;-55
2021/12/05 12:04:21;;;;;;;4.20;3.90;;;7.40;99.90;;;;;;5067275;28;20202;-59
2021/12/05 12:07:06;;;;;;;4.90;3.70;;;7.30;99.90;;;;;;5067460;28;20424;-59
2021/12/05 12:09:32;;;;;;;4.30;3.53;;;7.20;99.90;;;;;;5080661;28;20447;-57
2021/12/05 12:11:59;;;;;;;3.40;3.10;;;7.20;99.90;;;;;;5073039;28;20957;-59
2021/12/05 12:14:25;;;;;;;4.00;3.60;;;7.20;99.90;;;;;;5080782;28;20268;-57
2021/12/05 12:16:51;;;;;;;5.07;3.90;;;7.20;99.90;;;;;;5083746;28;20514;-55
2021/12/05 12:19:21;;;;;;;5.13;3.40;;;7.20;99.90;;;;;;5072467;28;20738;-58
2021/12/05 12:21:48;;;;;;;4.50;3.50;;;7.10;99.90;;;;;;5068844;28;21322;-57
2021/12/05 12:24:15;;;;;;;3.90;3.60;;;7.10;99.90;;;;;;5067755;28;20471;-58
2021/12/05 12:26:42;;;;;;;3.87;3.33;;;7.10;99.90;;;;;;5074608;28;20510;-55
2021/12/05 12:29:11;;;;;;;4.27;3.37;;;7.10;99.90;;;;;;5076593;28;20442;-56
2021/12/05 12:31:41;;;;;;;4.83;3.50;;;7.10;99.90;;;;;;5065507;28;22442;-59
2021/12/05 12:34:10;;;;;;;4.40;3.77;;;7.10;99.90;;;;;;5073572;28;20423;-52
2021/12/05 12:36:52;;;;;;;3.57;2.90;;;7.10;99.90;;;;;;5085074;28;20810;-49
2021/12/05 12:39:18;;;;;;;3.97;3.30;;;7.00;99.90;;;;;;5073382;28;20431;-57
2021/12/05 12:42:02;;;;;;;5.13;3.13;;;7.00;99.90;;;;;;5075343;28;20460;-55
2021/12/05 12:44:28;;;;;;;4.10;3.40;;;7.10;99.90;;;;;;5077988;28;20454;-50
2021/12/05 12:47:04;;;;;;;5.67;3.30;;;7.20;99.90;;;;;;5077270;28;20999;-53
2021/12/05 12:49:36;;;;;;;7.80;3.50;;;7.30;99.90;;;;;;5059616;28;20403;-54
2021/12/05 12:52:17;;;;;;;4.73;3.93;;;7.40;99.90;;;;;;5069379;28;20967;-52
2021/12/05 12:54:44;;;;;;;4.63;3.53;;;7.40;99.90;;;;;;5071742;28;20427;-53
2021/12/05 12:57:22;;;;;;;3.77;3.47;;;7.50;99.90;;;;;;5069728;28;21347;-54
2021/12/05 12:59:56;;;;;;;4.00;3.70;;;7.60;99.90;;;;;;5070690;28;20929;-58
2021/12/05 13:02:37;;;;;;;5.67;3.60;;;7.60;99.90;;;;;;5071182;28;20430;-57
2021/12/05 13:05:54;;;;;;;3.40;3.10;;;7.50;99.90;;;;;;5071092;28;20538;-49
2021/12/05 13:11:08;;;;;;;5.67;3.40;;;7.50;99.90;;;;;;5074727;28;20453;-50
2021/12/05 13:13:36;;;;;;;5.30;3.60;;;7.40;99.90;;;;;;5068470;28;20435;-55
2021/12/05 13:16:16;;;;;;;4.00;3.37;;;7.40;99.90;;;;;;5067767;28;20243;-51
2021/12/05 13:18:45;;;;;;;6.43;3.97;;;7.40;99.90;;;;;;5064993;28;20438;-50
2021/12/05 13:21:16;;;;;;;3.63;3.30;;;7.50;99.90;;;;;;5069394;28;20507;-54
2021/12/05 13:23:53;;;;;;;5.60;3.80;;;7.60;99.90;;;;;;5068716;28;20479;-55
2021/12/05 13:26:35;;;;;;;7.90;3.50;;;7.70;99.90;;;;;;5070742;28;20426;-54
2021/12/05 13:29:25;;;;;;;3.63;3.10;;;7.90;99.90;;;;;;5069703;28;21213;-57
2021/12/05 13:32:25;;;;;;;6.53;3.90;;;8.00;99.90;;;;;;5066456;28;20420;-54
2021/12/05 13:35:03;;;;;;;4.50;3.23;;;8.00;99.90;;;;;;5061556;28;20443;-51
2021/12/05 13:37:51;;;;;;;5.83;3.80;;;8.30;99.90;;;;;;5040894;28;20430;-59
2021/12/05 13:40:22;;;;;;;6.40;4.23;;;8.20;99.90;;;;;;5062149;28;21112;-54
2021/12/05 13:42:54;;;;;;;3.73;3.43;;;8.10;99.90;;;;;;5069287;28;20440;-50
2021/12/05 13:45:26;;;;;;;3.93;3.50;;;8.00;99.90;;;;;;5069763;28;20937;-53
2021/12/05 13:47:51;;;;;;;4.40;3.77;;;7.90;99.90;;;;;;5069888;28;20988;-48
2021/12/05 13:50:25;;;;;;;4.60;3.83;;;7.70;99.90;;;;;;5043071;28;20417;-59
2021/12/05 13:53:01;;;;;;;4.83;3.97;;;7.60;99.90;;;;;;5069473;28;20899;-57
2021/12/05 13:55:42;;;;;;;5.07;3.97;;;7.50;99.90;;;;;;5069690;28;20440;-55
2021/12/05 13:58:25;;;;;;;7.00;4.63;;;7.40;99.90;;;;;;5070467;28;21012;-53
2021/12/05 14:01:02;;;;;;;4.23;3.83;;;7.20;99.90;;;;;;5060489;28;20786;-55
2021/12/05 14:03:48;;;;;;;4.13;3.60;;;7.10;99.90;;;;;;5063882;28;21207;-58
2021/12/05 14:06:41;;;;;;;6.23;5.47;;;7.10;99.90;;;;;;5076913;28;20428;-50
2021/12/05 14:09:31;;;;;;;8.23;3.90;;;7.00;99.90;;;;;;5067923;28;20965;-52
2021/12/05 14:12:03;;;;;;;21.53;13.97;;;6.90;99.90;;;;;;5067105;28;20432;-53
2021/12/05 14:14:34;;;;;;;18.63;13.43;;;6.90;99.90;;;;;;5068129;28;20898;-54
2021/12/05 14:17:15;;;;;;;5.97;5.30;;;6.80;99.90;;;;;;5067899;28;20489;-54
2021/12/05 14:19:43;;;;;;;3.97;3.67;;;6.80;99.90;;;;;;5060198;28;20177;-54
2021/12/05 14:22:12;;;;;;;5.43;4.27;;;6.80;99.90;;;;;;5070591;28;20451;-49
2021/12/05 14:24:42;;;;;;;4.83;3.70;;;6.80;99.90;;;;;;5068416;28;21029;-53
2021/12/05 14:27:10;;;;;;;5.37;4.20;;;6.80;99.90;;;;;;5077424;28;20422;-53
2021/12/05 14:29:40;;;;;;;9.20;7.90;;;6.70;99.90;;;;;;5075329;28;20497;-49
2021/12/05 14:32:23;;;;;;;7.97;6.47;;;6.70;99.90;;;;;;5058834;28;20930;-58
2021/12/05 14:34:55;;;;;;;6.68;5.63;;;6.70;99.90;;;;;;5069220;28;20432;-56
2021/12/05 14:37:24;;;;;;;5.20;4.70;;;6.70;99.90;;;;;;5075449;28;20182;-55
2021/12/05 14:39:55;;;;;;;5.10;4.60;;;6.70;99.90;;;;;;5069424;28;20740;-56
2021/12/05 14:42:24;;;;;;;4.97;4.50;;;6.80;99.90;;;;;;5068554;28;20553;-57
2021/12/05 14:44:59;;;;;;;5.30;4.25;;;6.70;99.90;;;;;;5067221;28;20214;-57
2021/12/05 14:47:28;;;;;;;6.50;5.30;;;6.60;99.90;;;;;;5070866;28;20176;-59
2021/12/05 14:50:24;;;;;;;5.28;4.43;;;6.50;99.90;;;;;;5068758;28;20464;-57
2021/12/05 14:52:55;;;;;;;5.93;4.50;;;6.50;99.90;;;;;;5067649;28;20243;-57
2021/12/05 14:55:23;;;;;;;4.93;4.53;;;6.50;99.90;;;;;;5069030;28;20203;-59
2021/12/05 14:58:14;;;;;;;5.07;4.57;;;6.50;99.90;;;;;;5067455;28;20235;-58
2021/12/05 15:00:50;;;;;;;5.75;4.60;;;6.40;99.90;;;;;;5056586;28;20216;-56
2021/12/05 15:03:22;;;;;;;8.48;4.90;;;6.30;99.90;;;;;;5067271;28;20209;-54
2021/12/05 15:05:51;;;;;;;6.90;5.35;;;6.30;99.90;;;;;;5069722;28;20196;-49
2021/12/05 15:08:20;;;;;;;4.80;4.15;;;6.20;99.90;;;;;;5051945;28;20200;-54
2021/12/05 15:10:52;;;;;;;4.70;4.20;;;6.10;99.90;;;;;;5069667;28;20256;-51
2021/12/05 15:13:18;;;;;;;9.50;3.90;;;6.00;99.90;;;;;;5069810;28;20582;-52
2021/12/05 15:15:45;;;;;;;6.13;4.60;;;6.00;99.90;;;;;;5069548;28;20209;-57
2021/12/05 15:18:34;;;;;;;5.95;4.53;;;5.90;99.90;;;;;;5067681;28;20200;-56
2021/12/05 15:21:01;;;;;;;7.53;4.40;;;5.80;99.90;;;;;;5048646;28;20167;-49
2021/12/05 15:23:29;;;;;;;6.82;5.38;;;5.70;99.90;;;;;;5048227;28;20246;-53
2021/12/05 15:25:57;;;;;;;7.63;6.43;;;5.70;99.90;;;;;;5048010;28;20212;-55
2021/12/05 15:28:23;;;;;;;24.38;18.25;;;5.60;99.90;;;;;;5049075;28;20336;-52
2021/12/05 15:30:49;;;;;;;9.23;7.33;;;5.60;99.90;;;;;;5065541;28;20239;-54
2021/12/05 15:33:20;;;;;;;6.17;5.57;;;5.50;99.90;;;;;;5068728;28;20177;-52
2021/12/05 15:35:48;;;;;;;7.75;5.40;;;5.40;99.90;;;;;;5069750;28;20406;-50
2021/12/05 15:38:21;;;;;;;9.25;5.28;;;5.40;99.90;;;;;;5069646;28;20166;-51
2021/12/05 15:40:48;;;;;;;5.75;5.18;;;5.40;99.90;;;;;;5069443;28;20172;-50
2021/12/05 15:43:17;;;;;;;8.40;5.93;;;5.30;99.90;;;;;;5069469;28;20197;-55
2021/12/05 15:45:45;;;;;;;8.18;5.00;;;5.30;99.90;;;;;;5069635;28;20681;-51
2021/12/05 15:48:11;;;;;;;7.45;4.95;;;5.20;99.90;;;;;;5069143;28;20186;-50
2021/12/05 15:50:39;;;;;;;8.27;4.97;;;5.20;99.90;;;;;;5068815;28;20192;-52
2021/12/05 15:53:10;;;;;;;6.90;5.10;;;5.10;99.90;;;;;;5069414;28;20250;-53
2021/12/05 15:55:41;;;;;;;6.95;5.50;;;5.10;99.90;;;;;;5068236;28;20208;-53
2021/12/05 15:58:22;;;;;;;6.40;5.50;;;5.00;99.90;;;;;;5068901;28;20185;-54
2021/12/05 16:01:06;;;;;;;7.28;5.50;;;4.90;99.90;;;;;;5064133;28;20185;-55
2021/12/05 16:03:56;;;;;;;9.98;5.80;;;4.90;99.90;;;;;;5088524;28;20249;-57
2021/12/05 16:06:38;;;;;;;5.80;4.88;;;4.80;99.90;;;;;;5088274;28;20177;-50
2021/12/05 16:09:15;;;;;;;9.38;5.68;;;4.80;99.90;;;;;;5071552;28;20226;-52
2021/12/05 16:11:41;;;;;;;6.82;5.18;;;4.70;99.90;;;;;;5037551;28;20240;-55
2021/12/05 16:14:06;;;;;;;6.43;5.50;;;4.70;99.90;;;;;;5059032;28;20206;-57
2021/12/05 16:16:34;;;;;;;7.03;5.77;;;4.60;99.90;;;;;;5061710;28;20182;-50
2021/12/05 16:19:03;;;;;;;8.57;5.97;;;4.50;99.90;;;;;;5064022;28;20585;-54
2021/12/05 16:21:32;;;;;;;11.57;7.70;;;4.50;99.90;;;;;;5066894;28;20747;-52
2021/12/05 16:24:10;;;;;;;10.70;6.90;;;4.50;99.90;;;;;;5066737;28;20220;-59
2021/12/05 16:26:36;;;;;;;10.68;7.80;;;4.50;99.90;;;;;;5058625;28;20173;-53
2021/12/05 16:29:06;;;;;;;19.30;8.63;;;4.50;99.90;;;;;;5066557;28;20178;-53
2021/12/05 16:31:46;;;;;;;9.85;7.72;;;4.50;99.90;;;;;;5065794;28;20550;-57
2021/12/05 16:34:19;;;;;;;10.75;7.60;;;4.40;99.90;;;;;;5065779;28;20178;-52
2021/12/05 16:36:53;;;;;;;8.38;7.38;;;4.40;99.90;;;;;;5069894;28;20275;-52
2021/12/05 16:39:22;;;;;;;11.70;8.70;;;4.40;99.90;;;;;;5068625;28;20178;-54
2021/12/05 16:41:55;;;;;;;8.25;7.30;;;4.30;99.90;;;;;;5083579;28;20820;-52
2021/12/05 16:44:24;;;;;;;8.68;6.90;;;4.30;99.90;;;;;;5077734;28;20205;-54
2021/12/05 16:47:00;;;;;;;11.70;8.02;;;4.20;99.90;;;;;;5073239;28;20174;-50
2021/12/05 16:49:30;;;;;;;9.48;7.45;;;4.20;99.90;;;;;;5072458;28;20181;-49
2021/12/05 16:51:58;;;;;;;10.32;7.63;;;4.10;99.90;;;;;;5063194;28;20227;-49
2021/12/05 16:54:36;;;;;;;10.27;8.15;;;4.20;99.90;;;;;;5070163;28;20219;-54
2021/12/05 16:57:13;;;;;;;9.75;6.70;;;4.20;99.90;;;;;;5063026;28;20187;-52
2021/12/05 16:59:47;;;;;;;12.20;7.75;;;4.20;99.90;;;;;;5065001;28;20185;-52
2021/12/05 17:02:14;;;;;;;15.63;11.90;;;4.20;99.90;;;;;;5065294;28;20228;-54
2021/12/05 17:05:05;;;;;;;14.15;9.10;;;4.20;99.90;;;;;;5064478;28;20281;-54
2021/12/05 17:07:47;;;;;;;10.43;9.35;;;4.20;99.90;;;;;;5055213;28;20216;-54
2021/12/05 17:10:24;;;;;;;14.18;10.60;;;4.30;99.90;;;;;;5064483;28;20169;-53
2021/12/05 17:12:53;;;;;;;20.30;14.93;;;4.30;99.90;;;;;;5061644;28;20174;-55
2021/12/05 17:15:24;;;;;;;16.55;13.95;;;4.30;99.90;;;;;;5058167;28;21893;-53
2021/12/05 17:17:53;;;;;;;17.70;13.30;;;4.30;99.90;;;;;;5071562;28;20178;-54
2021/12/05 17:20:32;;;;;;;16.55;12.23;;;4.30;99.90;;;;;;5067890;28;20726;-54
2021/12/05 17:23:04;;;;;;;17.77;13.05;;;4.30;99.90;;;;;;5058516;28;20251;-59
2021/12/05 17:25:36;;;;;;;19.17;13.20;;;4.30;99.90;;;;;;5078794;28;20195;-58
2021/12/05 17:28:09;;;;;;;16.38;12.38;;;4.40;99.90;;;;;;5076378;28;20197;-53
2021/12/05 17:30:35;;;;;;;16.70;13.10;;;4.40;99.90;;;;;;5062487;28;20189;-58
2021/12/05 17:33:02;;;;;;;13.65;12.25;;;4.40;99.90;;;;;;5065422;28;20213;-58
2021/12/05 17:35:29;;;;;;;18.25;12.68;;;4.50;99.90;;;;;;5063149;28;20351;-59
2021/12/05 17:37:56;;;;;;;21.67;13.70;;;4.50;99.90;;;;;;5059883;28;20176;-57
2021/12/05 17:40:21;;;;;;;17.83;14.13;;;4.50;99.90;;;;;;5068248;28;20178;-56
2021/12/05 17:42:47;;;;;;;15.20;12.83;;;4.50;99.90;;;;;;5067546;28;20166;-53
2021/12/05 17:45:15;;;;;;;20.30;14.33;;;4.50;99.90;;;;;;5056793;28;20209;-54
2021/12/05 17:47:41;;;;;;;15.77;13.82;;;4.50;99.90;;;;;;5067662;28;20202;-49
2021/12/05 17:50:12;;;;;;;20.05;15.85;;;4.60;99.90;;;;;;5050604;28;20213;-54
2021/12/05 17:52:38;;;;;;;17.50;14.15;;;4.60;99.90;;;;;;5074954;28;20192;-55
2021/12/05 17:55:14;;;;;;;18.27;14.30;;;4.60;99.90;;;;;;5078888;28;20543;-55
2021/12/05 17:57:49;;;;;;;17.90;12.75;;;4.70;99.90;;;;;;5069795;28;20189;-52
2021/12/05 18:02:57;;;;;;;17.77;12.63;;;4.70;99.90;;;;;;5064158;28;20190;-53
2021/12/05 18:05:34;;;;;;;22.30;13.00;;;4.70;99.90;;;;;;5070261;28;20941;-54
2021/12/05 18:08:09;;;;;;;17.63;13.05;;;4.70;99.90;;;;;;5081383;28;20250;-56
2021/12/05 18:10:37;;;;;;;14.85;11.98;;;4.70;99.90;;;;;;5066464;28;20187;-56
2021/12/05 18:13:06;;;;;;;15.73;12.60;;;4.70;99.90;;;;;;5075422;28;20348;-50
2021/12/05 18:15:34;;;;;;;15.98;14.30;;;4.70;99.90;;;;;;5074606;28;20200;-52
2021/12/05 18:18:00;;;;;;;17.88;14.18;;;4.70;99.90;;;;;;5065369;28;20228;-55
2021/12/05 18:20:29;;;;;;;17.83;13.68;;;4.70;99.90;;;;;;5063266;28;20177;-52